Avon, CO (81620)

5:00 PM MST en Marzo 05, 2015 (GMT -0700)
Whiskey Hill, EagleVail | Change Station
CLOSE
Current Station
Estación meteorológica personal
Location: Avon, CO
Altura: 7959 ft
Estaciones meteorológicas cercanas

Alt 7959 ft 39.61 °N, 106.48 °W | Updated 15 seconds ago

Despejado
Despejado
32.5 ° F
Sensación térmica 29 ° F
N
3.6
Viento Variable Viento desde OSO
Gusts 8.3 mph

Hoy
Alta -- | Baja -- ° F
--% Posibilidad de precipitaciones
Ayer
Alta -- | Baja -- ° F
Precip. -- pul
6:33 AM 6:02 PM
Luna llena, 100% visible
Presión 30.35 pul
Visibilidad 10.0 Millas
Nubes Despejado
Vientos helados 29 ° F
Punto de rocío -1 ° F
Humedad 23%
Precipitaciones pul
Espesor de la nieve No disponible.
UV 1 de una escala de 12
Polen 5.50 de una escala de 12
Calidad del aire No disponible.
Flu Activity No disponible.
METAR KEGE 052350Z 22012KT 10SM SKC 04/M11 A3035

More Conditions Fewer Conditions

Presión 30.35 pul
Visibilidad 10.0 Millas
Nubes Despejado
Vientos helados 29 ° F
Punto de rocío -1 ° F
Humedad 23%
Precipitaciones pul
Espesor de la nieve No disponible.
UV 1 de una escala de 12
Polen 5.50 de una escala de 12
Calidad del aire No disponible.
Flu Activity No disponible.
METAR KEGE 052350Z 22012KT 10SM SKC 04/M11 A3035

More Conditions Fewer Conditions

10-Day Weather Forecast

Almanac

Astronomía

Mar. 05, 2015 Salida Puesta
Hora real
Crepúsculo civil
Crepúsculo náutico
Crepúsculo astronómico
Luna
Horas de luz
Horas de luz
Tomorrow will be .
, % of the Moon is Illuminated

Extremos de hoy

Máximos del estado Bajos del estado

Community

WunderPhotos

Upload Photos

1,803,066 ¡fotos cargadas!

WunderBlogs® & News

Nearby

Calidad del aire

  Calidad del aire Índice AQ Contaminante
Not available.

Grosos de nieve

Estación Profundido Altura

Actividad de terremotos

Ciudad Distance Mag. Tiempo y dato
Magnitud mínima muestra es 2,5.

Temperaturas de aguas costeras

Lugar Temperatura

Estaciones meteorológicas cercanas